createdAt,value
2018-06-09T00:01:00.094Z,99.90
2018-06-09T00:03:48.243Z,99.90
2018-06-09T00:06:20.876Z,99.90
2018-06-09T00:11:42.929Z,99.90
2018-06-09T00:14:18.168Z,99.90
2018-06-09T00:16:55.976Z,99.90
2018-06-09T00:19:33.854Z,99.90
2018-06-09T00:22:10.334Z,99.90
2018-06-09T00:24:44.946Z,99.90
2018-06-09T00:27:18.982Z,99.90
2018-06-09T00:29:54.392Z,99.90
2018-06-09T00:32:35.234Z,99.90
2018-06-09T00:35:09.369Z,99.90
2018-06-09T00:37:43.900Z,99.90
2018-06-09T00:40:17.886Z,99.90
2018-06-09T00:42:50.910Z,99.90
2018-06-09T00:45:21.295Z,99.90
2018-06-09T00:47:57.235Z,99.90
2018-06-09T00:50:50.155Z,99.90
2018-06-09T00:53:23.318Z,99.90
2018-06-09T00:56:14.947Z,99.90
2018-06-09T00:58:56.266Z,99.90
2018-06-09T01:01:40.663Z,99.90
2018-06-09T01:04:28.523Z,99.90
2018-06-09T01:07:22.923Z,99.90
2018-06-09T01:09:59.165Z,99.90
2018-06-09T01:12:52.717Z,99.90
2018-06-09T01:15:48.115Z,99.90
2018-06-09T01:18:35.440Z,99.90
2018-06-09T01:22:06.541Z,99.90
2018-06-09T01:24:57.375Z,99.90
2018-06-09T01:27:50.844Z,99.90
2018-06-09T01:34:10.946Z,99.90
2018-06-09T01:40:24.550Z,99.90
2018-06-09T01:43:07.134Z,99.90
2018-06-09T01:48:38.859Z,99.90
2018-06-09T01:51:25.424Z,99.90
2018-06-09T01:54:03.050Z,99.90
2018-06-09T01:56:35.977Z,99.90
2018-06-09T01:59:29.871Z,99.90
2018-06-09T02:02:05.134Z,99.90
2018-06-09T02:04:55.884Z,99.90
2018-06-09T02:07:30.290Z,99.90
2018-06-09T02:10:10.947Z,99.90
2018-06-09T02:12:54.224Z,99.90
2018-06-09T02:15:29.901Z,99.90
2018-06-09T02:18:03.847Z,99.90
2018-06-09T02:20:38.311Z,99.90
2018-06-09T02:23:15.997Z,99.90
2018-06-09T02:25:49.796Z,99.90
2018-06-09T02:29:11.187Z,99.90
2018-06-09T02:31:48.537Z,99.90
2018-06-09T02:34:37.994Z,99.90
2018-06-09T02:37:28.773Z,99.90
2018-06-09T02:39:59.567Z,99.90
2018-06-09T02:42:32.709Z,99.90
2018-06-09T02:45:07.046Z,99.90
2018-06-09T02:47:43.711Z,99.90
2018-06-09T02:50:30.050Z,99.90
2018-06-09T02:53:11.290Z,99.90
2018-06-09T02:55:43.399Z,99.90
2018-06-09T02:58:49.736Z,99.90
2018-06-09T03:01:31.878Z,99.90
2018-06-09T03:04:12.666Z,99.90
2018-06-09T03:06:44.432Z,99.90
2018-06-09T03:09:20.086Z,99.90
2018-06-09T03:12:10.377Z,99.90
2018-06-09T03:14:53.326Z,99.90
2018-06-09T03:17:25.954Z,99.90
2018-06-09T03:19:57.759Z,99.90
2018-06-09T03:27:50.578Z,99.90
2018-06-09T03:30:24.053Z,99.90
2018-06-09T03:33:01.192Z,99.90
2018-06-09T03:35:35.610Z,99.90
2018-06-09T03:38:16.979Z,99.90
2018-06-09T03:40:52.148Z,99.90
2018-06-09T03:43:26.083Z,99.90
2018-06-09T03:46:15.582Z,99.90
2018-06-09T03:48:50.016Z,99.90
2018-06-09T03:51:27.703Z,99.90
2018-06-09T03:54:00.294Z,99.90
2018-06-09T03:56:39.302Z,99.90
2018-06-09T03:59:14.628Z,99.90
2018-06-09T04:01:53.593Z,99.90
2018-06-09T04:04:28.274Z,99.90
2018-06-09T04:07:20.288Z,99.90
2018-06-09T04:10:01.431Z,99.90
2018-06-09T04:13:19.425Z,99.90
2018-06-09T04:16:10.466Z,99.90
2018-06-09T04:18:45.279Z,99.90
2018-06-09T04:21:40.768Z,99.90
2018-06-09T04:24:18.514Z,99.90
2018-06-09T04:26:49.931Z,99.90
2018-06-09T04:29:28.278Z,99.90
2018-06-09T04:32:04.890Z,99.90
2018-06-09T04:34:47.451Z,99.90
2018-06-09T04:37:24.736Z,99.90
2018-06-09T04:40:06.750Z,99.90
2018-06-09T04:42:46.678Z,99.90
2018-06-09T04:45:27.014Z,99.90
2018-06-09T04:47:59.634Z,99.90
2018-06-09T04:50:30.053Z,99.90
2018-06-09T04:53:10.072Z,99.90
2018-06-09T04:55:59.782Z,99.90
2018-06-09T04:58:31.250Z,99.90
2018-06-09T05:01:03.201Z,99.90
2018-06-09T05:03:47.126Z,99.90
2018-06-09T05:06:19.171Z,99.90
2018-06-09T05:08:50.294Z,99.90
2018-06-09T05:11:24.514Z,99.90
2018-06-09T05:14:15.588Z,99.90
2018-06-09T05:16:49.167Z,99.90
2018-06-09T05:19:25.879Z,99.90
2018-06-09T05:22:11.185Z,99.90
2018-06-09T05:24:57.659Z,99.90
2018-06-09T05:27:30.543Z,99.90
2018-06-09T05:30:08.177Z,99.90
2018-06-09T05:32:38.829Z,99.90
2018-06-09T05:35:28.417Z,99.90
2018-06-09T05:38:02.807Z,99.90
2018-06-09T05:40:39.107Z,99.90
2018-06-09T05:43:13.194Z,99.90
2018-06-09T05:48:21.234Z,99.90
2018-06-09T05:50:55.283Z,99.90
2018-06-09T05:53:37.226Z,99.90
2018-06-09T05:56:09.601Z,99.90
2018-06-09T05:58:47.600Z,99.90
2018-06-09T06:01:23.408Z,99.90
2018-06-09T06:03:56.859Z,99.90
2018-06-09T06:06:38.059Z,99.90
2018-06-09T06:09:16.542Z,99.90
2018-06-09T06:11:47.463Z,99.90
2018-06-09T06:14:18.175Z,99.90
2018-06-09T06:16:51.048Z,99.90
2018-06-09T06:19:24.719Z,99.90
2018-06-09T06:21:58.541Z,99.90
2018-06-09T06:24:35.068Z,99.90
2018-06-09T06:27:09.942Z,99.90
2018-06-09T06:29:41.854Z,99.90
2018-06-09T06:32:23.719Z,99.90
2018-06-09T06:35:00.477Z,99.90
2018-06-09T06:37:48.054Z,99.90
2018-06-09T06:40:36.529Z,99.90
2018-06-09T06:43:11.366Z,99.90
2018-06-09T06:45:43.114Z,99.60
2018-06-09T06:48:14.695Z,98.40
2018-06-09T06:50:46.654Z,99.90
2018-06-09T06:53:29.383Z,99.90
2018-06-09T06:56:01.006Z,99.90
2018-06-09T06:58:42.210Z,99.90
2018-06-09T07:01:13.611Z,99.90
2018-06-09T07:03:44.602Z,99.90
2018-06-09T07:06:21.879Z,99.90
2018-06-09T07:08:58.809Z,99.90
2018-06-09T07:11:39.346Z,99.90
2018-06-09T07:14:11.070Z,99.90
2018-06-09T07:16:44.769Z,99.90
2018-06-09T07:19:15.507Z,99.90
2018-06-09T07:21:45.940Z,99.90
2018-06-09T07:24:16.591Z,99.90
2018-06-09T07:26:51.180Z,99.90
2018-06-09T07:29:22.774Z,99.90
2018-06-09T07:31:59.320Z,99.90
2018-06-09T07:34:33.382Z,99.90
2018-06-09T07:37:04.053Z,99.90
2018-06-09T07:39:38.894Z,99.90
2018-06-09T07:42:15.999Z,99.80
2018-06-09T07:44:49.080Z,96.30
2018-06-09T07:47:44.679Z,93.60
2018-06-09T07:50:18.502Z,96.50
2018-06-09T07:53:04.698Z,98.00
2018-06-09T07:55:55.710Z,98.80
2018-06-09T07:58:39.923Z,98.00
2018-06-09T08:01:15.931Z,98.00
2018-06-09T08:03:54.012Z,97.20
2018-06-09T08:06:32.131Z,97.00
2018-06-09T08:09:09.497Z,96.70
2018-06-09T08:11:45.938Z,96.40
2018-06-09T08:14:28.781Z,94.20
2018-06-09T08:17:11.323Z,88.80
2018-06-09T08:19:41.934Z,86.00
2018-06-09T08:22:22.051Z,90.00
2018-06-09T08:24:52.579Z,88.00
2018-06-09T08:32:44.390Z,84.70
2018-06-09T08:35:18.734Z,81.90
2018-06-09T08:37:49.621Z,81.70
2018-06-09T08:40:25.958Z,76.20
2018-06-09T08:43:01.277Z,72.60
2018-06-09T08:45:37.679Z,74.90
2018-06-09T08:48:18.358Z,77.70
2018-06-09T08:50:57.211Z,81.30
2018-06-09T08:53:35.803Z,82.30
2018-06-09T08:56:11.039Z,84.50
2018-06-09T08:58:46.538Z,91.00
2018-06-09T09:01:33.787Z,90.00
2018-06-09T09:04:06.652Z,88.20
2018-06-09T09:06:45.135Z,81.10
2018-06-09T09:09:21.803Z,79.40
2018-06-09T09:11:53.510Z,80.90
2018-06-09T09:14:36.815Z,78.60
2018-06-09T09:17:10.319Z,77.20
2018-06-09T09:19:40.942Z,75.20
2018-06-09T09:22:12.269Z,76.50
2018-06-09T09:24:44.589Z,75.20
2018-06-09T09:27:20.464Z,74.10
2018-06-09T09:29:57.157Z,74.30
2018-06-09T09:32:29.678Z,76.60
2018-06-09T09:35:05.030Z,74.80
2018-06-09T09:37:43.205Z,71.70
2018-06-09T09:40:14.591Z,72.20
2018-06-09T09:42:50.483Z,69.30
2018-06-09T09:45:28.257Z,70.70
2018-06-09T09:48:00.455Z,68.40
2018-06-09T09:50:32.209Z,67.50
2018-06-09T09:53:02.853Z,67.70
2018-06-09T09:55:33.514Z,66.00
2018-06-09T09:58:06.071Z,64.10
2018-06-09T10:00:39.196Z,65.20
2018-06-09T10:03:09.751Z,66.90
2018-06-09T10:05:46.686Z,67.20
2018-06-09T10:08:18.113Z,66.20
2018-06-09T10:10:53.156Z,61.60
2018-06-09T10:13:24.811Z,63.40
2018-06-09T10:15:59.548Z,60.40
2018-06-09T10:18:31.126Z,59.90
2018-06-09T10:21:02.546Z,56.00
2018-06-09T10:23:33.467Z,55.10
2018-06-09T10:26:09.243Z,51.60
2018-06-09T10:28:42.246Z,52.50
2018-06-09T10:31:12.837Z,48.30
2018-06-09T10:33:43.354Z,47.70
2018-06-09T10:36:16.555Z,47.70
2018-06-09T10:38:50.974Z,47.20
2018-06-09T10:44:13.182Z,48.60
2018-06-09T10:46:49.071Z,49.30
2018-06-09T10:49:19.461Z,51.60
2018-06-09T10:52:02.272Z,53.30
2018-06-09T10:54:39.206Z,53.20
2018-06-09T10:57:13.259Z,51.40
2018-06-09T10:59:46.817Z,50.70
2018-06-09T11:02:25.035Z,48.20
2018-06-09T11:05:02.060Z,49.40
2018-06-09T11:07:36.724Z,48.00
2018-06-09T11:15:15.653Z,51.60
2018-06-09T11:17:47.148Z,51.60
2018-06-09T11:20:19.089Z,49.70
2018-06-09T11:22:52.248Z,51.10
2018-06-09T11:25:27.114Z,48.30
2018-06-09T11:27:59.694Z,49.10
2018-06-09T11:30:32.078Z,50.90
2018-06-09T11:33:03.056Z,50.20
2018-06-09T11:35:35.794Z,50.80
2018-06-09T11:38:11.382Z,45.90
2018-06-09T11:40:45.213Z,43.00
2018-06-09T11:43:21.426Z,40.50
2018-06-09T11:45:54.319Z,40.60
2018-06-09T11:48:27.322Z,43.50
2018-06-09T11:51:03.130Z,42.90
2018-06-09T11:53:35.717Z,46.40
2018-06-09T11:56:11.370Z,47.80
2018-06-09T11:58:47.514Z,47.10
2018-06-09T12:04:07.925Z,47.60
2018-06-09T12:06:44.528Z,49.40
2018-06-09T12:09:15.870Z,48.20
2018-06-09T12:11:47.660Z,45.90
2018-06-09T12:14:32.707Z,44.70
2018-06-09T12:17:03.846Z,46.90
2018-06-09T12:19:37.374Z,47.80
2018-06-09T12:22:08.882Z,49.40
2018-06-09T12:24:44.963Z,47.70
2018-06-09T12:27:15.539Z,46.20
2018-06-09T12:29:55.787Z,42.80
2018-06-09T12:32:44.790Z,43.50
2018-06-09T12:35:23.002Z,45.90
2018-06-09T12:37:59.254Z,46.20
2018-06-09T12:40:33.500Z,48.10
2018-06-09T12:43:10.683Z,46.20
2018-06-09T12:45:47.165Z,46.20
2018-06-09T12:48:18.534Z,44.40
2018-06-09T12:50:49.577Z,46.20
2018-06-09T12:53:21.196Z,45.40
2018-06-09T12:55:53.100Z,43.30
2018-06-09T12:58:27.612Z,43.30
2018-06-09T13:01:04.574Z,42.90
2018-06-09T13:03:36.221Z,42.10
2018-06-09T13:06:07.687Z,42.20
2018-06-09T13:08:49.842Z,43.00
2018-06-09T13:11:21.900Z,42.40
2018-06-09T13:13:53.329Z,41.90
2018-06-09T13:16:24.014Z,39.30
2018-06-09T13:19:00.747Z,39.70
2018-06-09T13:21:59.829Z,37.20
2018-06-09T13:24:37.940Z,37.00
2018-06-09T13:27:16.777Z,34.40
2018-06-09T13:29:49.954Z,37.30
2018-06-09T13:32:24.127Z,34.50
2018-06-09T13:34:58.621Z,33.40
2018-06-09T13:37:29.542Z,34.90
2018-06-09T13:40:19.337Z,36.60
2018-06-09T13:42:52.586Z,36.50
2018-06-09T13:45:24.443Z,35.60
2018-06-09T13:48:01.095Z,37.30
2018-06-09T13:50:36.834Z,38.70
2018-06-09T13:53:14.712Z,41.00
2018-06-09T13:55:48.857Z,39.60
2018-06-09T13:58:26.040Z,35.70
2018-06-09T14:01:08.199Z,36.80
2018-06-09T14:03:43.121Z,38.50
2018-06-09T14:06:18.100Z,38.90
2018-06-09T14:08:56.554Z,40.20
2018-06-09T14:11:42.851Z,37.20
2018-06-09T14:14:15.422Z,35.30
2018-06-09T14:17:06.878Z,39.50
2018-06-09T14:19:50.841Z,39.70
2018-06-09T14:22:28.864Z,37.00
2018-06-09T14:25:00.712Z,36.90
2018-06-09T14:27:48.046Z,36.00
2018-06-09T14:30:36.099Z,34.50
2018-06-09T14:53:41.681Z,37.30
2018-06-09T14:56:24.793Z,38.30
2018-06-09T15:01:01.327Z,38.20
2018-06-09T15:03:35.578Z,34.80
2018-06-09T15:08:38.434Z,35.90
2018-06-09T15:11:09.223Z,38.20
2018-06-09T15:13:51.635Z,38.10
2018-06-09T15:19:07.162Z,40.10
2018-06-09T15:21:48.821Z,40.90
2018-06-09T15:24:28.950Z,38.30
2018-06-09T15:27:05.156Z,39.90
2018-06-09T15:29:40.046Z,40.90
2018-06-09T15:32:17.349Z,40.30
2018-06-09T15:34:50.605Z,40.50
2018-06-09T15:37:29.605Z,40.50
2018-06-09T15:40:08.214Z,41.60
2018-06-09T15:42:45.971Z,42.70
2018-06-09T15:45:19.512Z,41.00
2018-06-09T15:47:55.004Z,42.30
2018-06-09T15:50:37.766Z,40.90
2018-06-09T15:53:21.337Z,40.30
2018-06-09T15:55:57.146Z,39.30
2018-06-09T15:58:47.173Z,37.50
2018-06-09T16:01:24.345Z,36.40
2018-06-09T16:03:59.209Z,39.30
2018-06-09T16:06:38.822Z,39.30
2018-06-09T16:09:19.419Z,37.30
2018-06-09T16:12:11.056Z,38.80
2018-06-09T16:14:55.415Z,39.10
2018-06-09T16:17:35.806Z,38.30
2018-06-09T16:20:28.045Z,40.10
2018-06-09T16:25:47.984Z,42.70
2018-06-09T16:28:23.201Z,44.70
2018-06-09T16:31:06.249Z,45.20
2018-06-09T16:33:37.138Z,46.30
2018-06-09T16:39:56.528Z,47.40
2018-06-09T16:42:32.363Z,49.20
2018-06-09T16:45:23.568Z,51.40
2018-06-09T16:48:14.737Z,50.00
2018-06-09T16:50:50.102Z,51.20
2018-06-09T16:53:27.390Z,49.70
2018-06-09T16:56:08.037Z,50.40
2018-06-09T16:58:43.529Z,48.00
2018-06-09T17:01:17.854Z,48.30
2018-06-09T17:04:05.046Z,49.80
2018-06-09T17:06:41.696Z,51.10
2018-06-09T17:09:15.466Z,51.70
2018-06-09T17:11:54.206Z,52.30
2018-06-09T17:14:41.925Z,52.90
2018-06-09T17:19:52.518Z,52.70
2018-06-09T17:22:44.517Z,53.50
2018-06-09T17:25:28.668Z,56.70
2018-06-09T17:28:06.559Z,57.40
2018-06-09T17:33:50.303Z,58.90
2018-06-09T17:36:39.681Z,59.50
2018-06-09T17:39:15.370Z,60.10
2018-06-09T17:41:51.930Z,60.80
2018-06-09T17:44:29.186Z,58.60
2018-06-09T17:47:04.565Z,61.10
2018-06-09T17:49:41.546Z,61.00
2018-06-09T17:52:16.707Z,62.10
2018-06-09T17:54:49.103Z,63.10
2018-06-09T17:57:27.650Z,64.00
2018-06-09T18:00:06.210Z,62.50
2018-06-09T18:02:40.166Z,60.80
2018-06-09T18:05:11.589Z,60.00
2018-06-09T18:07:57.019Z,60.90
2018-06-09T18:13:09.915Z,61.10
2018-06-09T18:15:52.290Z,62.50
2018-06-09T18:18:30.116Z,64.80
2018-06-09T18:21:07.375Z,68.00
2018-06-09T18:23:45.955Z,71.50
2018-06-09T18:26:24.565Z,73.40
2018-06-09T18:28:57.674Z,74.70
2018-06-09T18:31:34.392Z,76.50
2018-06-09T18:34:07.971Z,79.20
2018-06-09T18:36:44.027Z,81.00
2018-06-09T18:39:16.286Z,81.60
2018-06-09T18:44:40.601Z,83.60
2018-06-09T18:47:31.899Z,84.40
2018-06-09T18:50:11.033Z,86.30
2018-06-09T18:52:42.913Z,87.90
2018-06-09T18:55:30.982Z,87.80
2018-06-09T18:58:04.876Z,89.70
2018-06-09T19:00:46.507Z,90.40
2018-06-09T19:03:40.127Z,90.90
2018-06-09T19:06:19.917Z,92.40
2018-06-09T19:08:51.177Z,93.40
2018-06-09T19:11:34.111Z,94.60
2018-06-09T19:14:10.258Z,94.70
2018-06-09T19:16:46.763Z,96.10
2018-06-09T19:19:24.518Z,96.60
2018-06-09T19:22:01.183Z,97.30
2018-06-09T19:27:19.261Z,98.40
2018-06-09T19:29:55.054Z,98.20
2018-06-09T19:32:27.538Z,98.10
2018-06-09T19:35:00.382Z,98.80
2018-06-09T19:37:31.296Z,99.70
2018-06-09T19:40:08.442Z,99.30
2018-06-09T19:42:42.054Z,99.10
2018-06-09T19:45:14.398Z,99.90
2018-06-09T19:47:46.494Z,99.90
2018-06-09T19:50:25.004Z,99.90
2018-06-09T19:52:55.762Z,99.90
2018-06-09T19:55:26.343Z,99.90
2018-06-09T19:58:03.051Z,99.90
2018-06-09T20:00:37.822Z,99.90
2018-06-09T20:03:09.532Z,99.90
2018-06-09T20:05:41.885Z,99.90
2018-06-09T20:10:42.343Z,99.90
2018-06-09T20:13:14.003Z,99.90
2018-06-09T20:15:45.659Z,99.90
2018-06-09T20:18:19.343Z,99.90
2018-06-09T20:26:13.374Z,99.90
2018-06-09T20:28:44.979Z,99.90
2018-06-09T20:31:22.554Z,99.90
2018-06-09T20:33:54.098Z,99.90
2018-06-09T20:36:30.553Z,99.90
2018-06-09T20:39:07.934Z,99.90
2018-06-09T20:41:41.516Z,99.90
2018-06-09T20:44:24.575Z,99.90
2018-06-09T20:46:59.904Z,99.90
2018-06-09T20:49:36.678Z,99.90
2018-06-09T20:52:08.147Z,99.90
2018-06-09T20:54:44.794Z,99.90
2018-06-09T20:57:20.574Z,99.90
2018-06-09T21:00:01.858Z,99.90
2018-06-09T21:02:36.223Z,99.90
2018-06-09T21:05:08.305Z,99.90
2018-06-09T21:07:48.446Z,99.90
2018-06-09T21:10:22.246Z,99.90
2018-06-09T21:12:52.586Z,99.90
2018-06-09T21:15:24.608Z,99.90
2018-06-09T21:17:58.960Z,99.90
2018-06-09T21:20:30.459Z,99.90
2018-06-09T21:23:00.838Z,99.90
2018-06-09T21:25:31.803Z,99.90
2018-06-09T21:28:32.209Z,99.90
2018-06-09T21:31:10.671Z,99.90
2018-06-09T21:34:03.502Z,99.90
2018-06-09T21:37:37.655Z,99.90
2018-06-09T21:40:16.943Z,99.90
2018-06-09T21:45:51.119Z,99.90
2018-06-09T21:48:22.047Z,99.90
2018-06-09T21:50:56.534Z,99.90
2018-06-09T21:53:29.127Z,99.90
2018-06-09T21:56:09.458Z,99.90
2018-06-09T21:58:40.863Z,99.90
2018-06-09T22:01:25.574Z,99.90
2018-06-09T22:03:58.176Z,99.90
2018-06-09T22:06:35.134Z,99.90
2018-06-09T22:09:08.647Z,99.90
2018-06-09T22:14:21.686Z,99.90
2018-06-09T22:16:54.223Z,99.90
2018-06-09T22:19:30.650Z,99.90
2018-06-09T22:22:09.129Z,99.90
2018-06-09T22:24:59.971Z,99.90
2018-06-09T22:27:34.259Z,99.90
2018-06-09T22:30:06.106Z,99.90
2018-06-09T22:32:36.753Z,99.90
2018-06-09T22:35:09.183Z,99.90
2018-06-09T22:37:43.395Z,99.90
2018-06-09T22:40:23.900Z,99.90
2018-06-09T22:45:34.835Z,99.90
2018-06-09T22:48:12.392Z,99.90
2018-06-09T22:50:55.852Z,99.90
2018-06-09T22:53:27.191Z,99.90
2018-06-09T22:56:02.180Z,99.90
2018-06-09T22:58:38.879Z,99.90
2018-06-09T23:03:56.375Z,99.90
2018-06-09T23:06:40.427Z,99.90
2018-06-09T23:09:11.239Z,99.90
2018-06-09T23:11:49.287Z,99.90
2018-06-09T23:14:19.488Z,99.90
2018-06-09T23:17:06.063Z,99.90
2018-06-09T23:19:42.362Z,99.90
2018-06-09T23:25:13.006Z,99.90
2018-06-09T23:27:47.499Z,99.90
2018-06-09T23:30:21.969Z,99.90
2018-06-09T23:32:59.311Z,99.90
2018-06-09T23:35:43.338Z,99.90
2018-06-09T23:38:14.331Z,99.90
2018-06-09T23:40:50.338Z,99.90
2018-06-09T23:43:22.122Z,99.90
2018-06-09T23:45:56.166Z,99.90
2018-06-09T23:48:50.215Z,99.90
2018-06-09T23:51:29.359Z,99.90
2018-06-09T23:54:06.955Z,99.90
2018-06-09T23:56:41.339Z,99.90
2018-06-09T23:59:15.564Z,99.90
